Time;durP1;ratioP1;P1;durP2;ratioP2;P2;SDS_P1;SDS_P2;PMS_P1;PMS_P2;Temp;Humidity;BMP_temperature;BMP_pressure;BME280_temperature;BME280_humidity;BME280_pressure;Samples;Min_cycle;Max_cycle;Signal;HPM_P1;HPM_P2
2021/06/29 00:00:27;;;;;;;5.65;5.25;;;26.10;80.20;;;;;;5088981;28;20614;-74
2021/06/29 00:03:16;;;;;;;5.53;5.13;;;26.10;80.40;;;;;;5088847;28;20194;-74
2021/06/29 00:05:42;;;;;;;5.88;5.38;;;26.10;80.30;;;;;;5088998;28;20203;-74
2021/06/29 00:08:09;;;;;;;5.70;5.40;;;26.10;80.20;;;;;;5088957;28;20290;-74
2021/06/29 00:10:37;;;;;;;6.05;5.47;;;26.00;79.80;;;;;;5088899;28;20206;-74
2021/06/29 00:13:05;;;;;;;5.88;5.43;;;26.00;80.30;;;;;;5088880;28;20211;-76
2021/06/29 00:15:33;;;;;;;5.75;5.40;;;26.00;80.40;;;;;;5088570;28;20274;-77
2021/06/29 00:18:00;;;;;;;6.07;5.55;;;25.90;80.40;;;;;;5089111;28;20611;-76
2021/06/29 00:20:28;;;;;;;6.35;5.95;;;25.90;80.60;;;;;;5088831;28;20238;-76
2021/06/29 00:22:55;;;;;;;6.07;5.68;;;25.90;80.80;;;;;;5088746;28;20210;-76
2021/06/29 00:25:22;;;;;;;6.65;5.93;;;25.90;81.00;;;;;;5088689;28;20211;-76
2021/06/29 00:27:49;;;;;;;6.03;5.53;;;25.90;81.10;;;;;;5088436;28;20620;-76
2021/06/29 00:30:16;;;;;;;6.00;5.60;;;25.90;81.20;;;;;;5088390;28;20231;-76
2021/06/29 00:32:43;;;;;;;6.25;5.82;;;25.90;82.20;;;;;;5088284;28;20207;-76
2021/06/29 00:35:11;;;;;;;5.85;5.55;;;25.90;81.60;;;;;;5088400;28;20223;-76
2021/06/29 00:37:39;;;;;;;8.30;6.18;;;25.80;81.50;;;;;;5088272;28;21078;-76
2021/06/29 00:40:08;;;;;;;5.95;5.55;;;25.80;81.60;;;;;;5088510;28;20211;-76
2021/06/29 00:42:34;;;;;;;5.93;5.53;;;25.70;82.00;;;;;;5088265;28;20207;-76
2021/06/29 00:45:01;;;;;;;6.30;5.90;;;25.60;82.20;;;;;;5088547;28;20219;-76
2021/06/29 00:47:28;;;;;;;6.20;5.80;;;25.60;83.00;;;;;;5088480;28;20207;-76
2021/06/29 00:49:54;;;;;;;6.20;5.90;;;25.60;83.50;;;;;;5088468;28;20225;-76
2021/06/29 00:52:21;;;;;;;5.97;5.57;;;25.50;84.20;;;;;;5088375;28;20634;-76
2021/06/29 00:54:50;;;;;;;5.68;5.38;;;25.50;84.40;;;;;;5088307;28;20272;-76
2021/06/29 00:57:17;;;;;;;6.35;5.95;;;25.50;84.30;;;;;;5087951;28;20242;-76
2021/06/29 00:59:44;;;;;;;6.00;5.65;;;25.50;84.40;;;;;;5088373;28;20241;-75
2021/06/29 01:02:12;;;;;;;6.20;5.78;;;25.50;84.40;;;;;;5088363;28;20241;-76
2021/06/29 01:04:40;;;;;;;6.10;5.53;;;25.50;84.80;;;;;;5088197;28;20199;-76
2021/06/29 01:07:09;;;;;;;6.78;6.28;;;25.50;85.60;;;;;;5088319;28;20210;-76
2021/06/29 01:09:37;;;;;;;6.53;6.03;;;25.50;86.90;;;;;;5088214;28;20234;-76
2021/06/29 01:12:06;;;;;;;7.82;5.97;;;25.50;87.20;;;;;;5088107;28;20264;-76
2021/06/29 01:14:33;;;;;;;6.88;6.35;;;25.50;87.00;;;;;;5087906;28;20260;-75
2021/06/29 01:17:02;;;;;;;6.75;6.25;;;25.50;87.90;;;;;;5088112;28;20653;-75
2021/06/29 01:19:36;;;;;;;6.68;6.28;;;25.40;87.60;;;;;;5088005;28;20207;-75
2021/06/29 01:22:05;;;;;;;6.60;6.20;;;25.40;87.60;;;;;;5088281;28;20276;-75
2021/06/29 01:24:33;;;;;;;9.00;6.28;;;25.40;87.80;;;;;;5087873;28;20263;-74
2021/06/29 01:27:03;;;;;;;6.47;5.97;;;25.40;87.60;;;;;;5088135;28;20215;-74
2021/06/29 01:29:41;;;;;;;6.55;6.15;;;25.20;86.90;;;;;;5088048;28;20233;-74
2021/06/29 01:32:12;;;;;;;7.05;6.45;;;25.30;86.90;;;;;;5088112;28;20191;-75
2021/06/29 01:34:38;;;;;;;7.00;6.50;;;25.30;86.80;;;;;;5087828;28;20606;-75
2021/06/29 01:37:06;;;;;;;6.80;6.28;;;25.30;87.10;;;;;;5087916;28;20238;-75
2021/06/29 01:39:33;;;;;;;6.80;6.30;;;25.20;87.30;;;;;;5090389;28;20206;-75
2021/06/29 01:42:00;;;;;;;7.10;6.35;;;25.30;86.70;;;;;;5091697;28;20210;-75
2021/06/29 01:44:29;;;;;;;6.93;6.32;;;25.20;86.40;;;;;;5091053;28;20678;-74
2021/06/29 01:46:56;;;;;;;6.57;6.00;;;25.20;87.20;;;;;;5091728;28;20293;-75
2021/06/29 01:49:25;;;;;;;6.57;6.18;;;25.20;86.60;;;;;;5091513;28;20293;-75
2021/06/29 01:51:52;;;;;;;6.30;5.85;;;25.20;86.80;;;;;;5091336;28;20614;-74
2021/06/29 01:54:20;;;;;;;7.03;6.43;;;25.20;86.90;;;;;;5091285;28;20272;-75
2021/06/29 01:56:47;;;;;;;6.50;6.10;;;25.20;86.80;;;;;;5090859;28;20778;-75
2021/06/29 01:59:16;;;;;;;6.97;6.45;;;25.20;86.60;;;;;;5091615;28;20210;-75
2021/06/29 02:01:44;;;;;;;6.68;6.22;;;25.20;86.70;;;;;;5091212;28;20199;-75
2021/06/29 02:04:11;;;;;;;7.10;6.60;;;25.10;87.10;;;;;;5091150;28;20202;-75
2021/06/29 02:06:37;;;;;;;6.65;6.22;;;25.10;87.30;;;;;;5091305;28;20209;-75
2021/06/29 02:09:07;;;;;;;7.63;7.13;;;25.10;87.80;;;;;;5091254;28;20203;-75
2021/06/29 02:11:36;;;;;;;7.18;6.70;;;25.10;88.20;;;;;;5090898;28;20206;-75
2021/06/29 02:14:02;;;;;;;7.72;7.07;;;25.10;88.20;;;;;;5090991;28;20203;-75
2021/06/29 02:16:29;;;;;;;7.57;7.00;;;25.10;88.30;;;;;;5090674;28;20700;-75
2021/06/29 02:18:56;;;;;;;7.15;6.65;;;25.00;88.20;;;;;;5090719;28;20210;-74
2021/06/29 02:21:22;;;;;;;7.32;6.80;;;25.00;87.30;;;;;;5090492;28;21024;-75
2021/06/29 02:23:49;;;;;;;7.13;6.53;;;25.00;87.60;;;;;;5090884;28;20202;-75
2021/06/29 02:26:16;;;;;;;7.40;6.75;;;25.00;87.20;;;;;;5090890;28;20206;-75
2021/06/29 02:28:43;;;;;;;7.65;7.10;;;25.00;87.30;;;;;;5090316;28;20728;-75
2021/06/29 02:31:10;;;;;;;7.57;7.07;;;25.00;88.10;;;;;;5090888;28;20235;-75
2021/06/29 02:33:37;;;;;;;7.75;7.15;;;25.00;88.20;;;;;;5093293;28;20238;-73
2021/06/29 02:36:05;;;;;;;7.03;6.60;;;25.00;88.10;;;;;;5104167;28;20275;-75
2021/06/29 02:38:31;;;;;;;7.13;6.72;;;25.00;87.70;;;;;;5102044;28;20203;-75
2021/06/29 02:40:58;;;;;;;6.85;6.45;;;25.00;87.70;;;;;;5101633;28;20198;-75
2021/06/29 02:43:24;;;;;;;7.60;6.93;;;25.00;88.00;;;;;;5098586;27;20210;-75
2021/06/29 02:45:52;;;;;;;7.13;6.68;;;25.00;88.90;;;;;;5107621;28;20652;-74
2021/06/29 02:48:19;;;;;;;7.93;7.32;;;25.00;89.30;;;;;;5108367;28;20267;-74
2021/06/29 02:50:46;;;;;;;8.00;7.43;;;24.90;89.90;;;;;;5107195;27;20263;-75
2021/06/29 02:53:12;;;;;;;6.90;6.50;;;25.00;90.20;;;;;;5108321;28;20230;-74
2021/06/29 02:55:39;;;;;;;7.47;6.97;;;25.00;90.30;;;;;;5108301;28;20318;-80
2021/06/29 02:58:06;;;;;;;7.18;6.55;;;25.00;90.30;;;;;;5108856;28;20306;-80
2021/06/29 03:00:32;;;;;;;6.93;6.43;;;24.90;90.10;;;;;;5108160;28;20206;-75
2021/06/29 03:03:00;;;;;;;7.15;6.75;;;24.90;89.90;;;;;;5108449;28;20251;-74
2021/06/29 03:05:27;;;;;;;6.68;6.18;;;25.00;89.40;;;;;;5108137;28;20206;-75
2021/06/29 03:07:54;;;;;;;7.80;7.30;;;24.90;89.40;;;;;;5108876;28;20202;-74
2021/06/29 03:10:20;;;;;;;8.13;7.50;;;24.90;89.60;;;;;;5107823;28;20240;-74
2021/06/29 03:12:47;;;;;;;7.50;7.00;;;24.90;89.90;;;;;;5107984;28;20206;-74
2021/06/29 03:15:14;;;;;;;7.65;7.05;;;24.90;90.00;;;;;;5108147;28;20209;-74
2021/06/29 03:17:41;;;;;;;7.75;7.25;;;24.90;89.90;;;;;;5107447;28;20759;-74
2021/06/29 03:20:11;;;;;;;7.68;7.07;;;24.80;89.70;;;;;;5108243;28;20228;-75
2021/06/29 03:22:39;;;;;;;7.65;7.05;;;24.80;89.50;;;;;;5108079;28;20195;-74
2021/06/29 03:25:07;;;;;;;8.07;7.38;;;24.80;89.80;;;;;;5107856;28;20210;-74
2021/06/29 03:27:33;;;;;;;7.53;7.07;;;24.80;90.00;;;;;;5102060;28;20210;-74
2021/06/29 03:30:00;;;;;;;7.47;7.07;;;24.80;90.20;;;;;;5108837;28;20202;-75
2021/06/29 03:32:27;;;;;;;8.23;7.65;;;24.80;90.20;;;;;;5108633;28;20210;-74
2021/06/29 03:34:53;;;;;;;8.27;7.78;;;24.80;90.20;;;;;;5109595;28;20259;-74
2021/06/29 03:37:21;;;;;;;8.52;7.93;;;24.80;90.30;;;;;;5109727;28;20244;-74
2021/06/29 03:39:48;;;;;;;8.70;7.90;;;24.80;90.50;;;;;;5109731;28;20255;-75
2021/06/29 03:42:14;;;;;;;8.05;7.45;;;24.80;90.50;;;;;;5109329;27;20247;-74
2021/06/29 03:44:41;;;;;;;8.20;7.60;;;24.80;90.60;;;;;;5109585;28;20202;-74
2021/06/29 03:47:08;;;;;;;8.73;8.13;;;24.80;90.80;;;;;;5109626;28;20198;-74
2021/06/29 03:49:35;;;;;;;8.02;7.53;;;24.80;90.90;;;;;;5109480;28;20228;-74
2021/06/29 03:52:01;;;;;;;8.68;7.50;;;24.80;90.90;;;;;;5109656;28;20206;-74
2021/06/29 03:54:29;;;;;;;8.07;7.47;;;24.80;91.30;;;;;;5108947;28;20740;-74
2021/06/29 03:56:56;;;;;;;8.27;7.57;;;24.70;91.30;;;;;;5109110;28;20245;-74
2021/06/29 03:59:23;;;;;;;8.55;7.95;;;24.70;91.30;;;;;;5109284;28;20928;-74
2021/06/29 04:01:49;;;;;;;8.93;8.32;;;24.80;91.30;;;;;;5109123;28;20247;-74
2021/06/29 04:04:16;;;;;;;8.20;7.70;;;24.80;91.20;;;;;;5109411;28;20202;-75
2021/06/29 04:06:42;;;;;;;8.20;7.50;;;24.80;91.10;;;;;;5109217;28;20233;-74
2021/06/29 04:09:09;;;;;;;8.80;8.18;;;24.80;91.20;;;;;;5109265;28;20284;-74
2021/06/29 04:11:38;;;;;;;8.88;7.78;;;24.80;91.30;;;;;;5108554;28;20725;-74
2021/06/29 04:14:05;;;;;;;8.57;7.90;;;24.70;91.20;;;;;;5109228;28;20263;-74
2021/06/29 04:16:32;;;;;;;9.18;8.40;;;24.70;91.20;;;;;;5109008;28;20276;-75
2021/06/29 04:18:59;;;;;;;8.80;8.00;;;24.70;91.20;;;;;;5109111;28;20227;-75
2021/06/29 04:21:26;;;;;;;8.05;7.55;;;24.70;91.50;;;;;;5108940;28;20228;-74
2021/06/29 04:23:53;;;;;;;8.32;7.78;;;24.70;91.60;;;;;;5108933;28;20681;-74
2021/06/29 04:26:20;;;;;;;8.82;8.27;;;24.70;91.70;;;;;;5109083;28;20210;-74
2021/06/29 04:28:48;;;;;;;9.68;8.80;;;24.70;91.60;;;;;;5108263;28;20733;-74
2021/06/29 04:31:17;;;;;;;8.13;7.63;;;24.70;91.50;;;;;;5109054;28;20548;-74
2021/06/29 04:33:43;;;;;;;8.25;7.65;;;24.70;91.50;;;;;;5108302;28;20574;-74
2021/06/29 04:36:10;;;;;;;8.60;7.90;;;24.70;91.50;;;;;;5108812;28;20222;-75
2021/06/29 04:38:37;;;;;;;8.40;7.72;;;24.80;91.50;;;;;;5108623;28;20259;-75
2021/06/29 04:41:03;;;;;;;7.93;7.43;;;24.70;91.60;;;;;;5108688;28;20202;-74
2021/06/29 04:43:30;;;;;;;8.80;8.15;;;24.80;91.70;;;;;;5108570;28;20205;-74
2021/06/29 04:45:58;;;;;;;13.10;8.10;;;24.80;91.70;;;;;;5108714;28;20289;-75
2021/06/29 04:48:25;;;;;;;10.70;8.90;;;24.80;91.80;;;;;;5108638;28;20210;-74
2021/06/29 04:50:52;;;;;;;9.07;8.35;;;24.80;91.70;;;;;;5108752;28;20206;-75
2021/06/29 04:53:18;;;;;;;9.38;8.65;;;24.80;91.70;;;;;;5108596;28;20226;-74
2021/06/29 04:55:45;;;;;;;8.57;8.07;;;24.80;91.70;;;;;;5108552;28;20202;-74
2021/06/29 04:58:11;;;;;;;9.15;8.55;;;24.80;91.70;;;;;;5108067;28;20242;-74
2021/06/29 05:00:43;;;;;;;9.32;8.55;;;24.80;91.80;;;;;;5108335;28;20197;-74
2021/06/29 05:03:11;;;;;;;18.02;9.75;;;24.80;91.80;;;;;;5108786;28;20254;-75
2021/06/29 05:05:38;;;;;;;9.98;9.18;;;24.80;91.90;;;;;;5108410;28;20237;-74
2021/06/29 05:08:05;;;;;;;9.73;8.93;;;24.80;92.10;;;;;;5108608;28;20249;-74
2021/06/29 05:10:32;;;;;;;9.55;8.77;;;24.80;92.10;;;;;;5108518;28;20202;-74
2021/06/29 05:12:59;;;;;;;9.70;9.00;;;24.70;92.20;;;;;;5108613;28;20263;-74
2021/06/29 05:15:25;;;;;;;10.48;9.23;;;24.80;92.60;;;;;;5112771;28;20209;-75
2021/06/29 05:17:52;;;;;;;9.60;8.90;;;24.80;92.60;;;;;;5112517;28;20365;-75
2021/06/29 05:20:20;;;;;;;9.25;8.55;;;24.80;92.70;;;;;;5112742;28;20552;-75
2021/06/29 05:22:46;;;;;;;10.07;8.80;;;24.80;92.60;;;;;;5112347;28;20255;-75
2021/06/29 05:25:14;;;;;;;9.20;8.38;;;24.80;92.90;;;;;;5112541;28;20271;-75
2021/06/29 05:27:41;;;;;;;9.60;8.90;;;24.80;93.30;;;;;;5109160;28;20253;-74
2021/06/29 05:30:09;;;;;;;9.38;8.68;;;24.80;93.40;;;;;;5089779;28;20206;-74
2021/06/29 05:32:37;;;;;;;12.35;9.60;;;24.80;93.60;;;;;;5091353;28;20676;-75
2021/06/29 05:35:04;;;;;;;10.18;9.38;;;24.80;93.80;;;;;;5091609;28;20246;-74
2021/06/29 05:37:33;;;;;;;10.63;9.65;;;24.80;94.10;;;;;;5091437;28;20766;-74
2021/06/29 05:39:59;;;;;;;10.43;9.45;;;24.80;94.20;;;;;;5092024;28;20553;-75
2021/06/29 05:42:26;;;;;;;10.57;9.48;;;24.90;94.10;;;;;;5091696;28;20203;-74
2021/06/29 05:44:53;;;;;;;9.93;8.98;;;24.90;94.30;;;;;;5091726;28;20226;-74
2021/06/29 05:47:21;;;;;;;10.63;9.65;;;25.00;94.40;;;;;;5091738;28;20211;-75
2021/06/29 05:49:48;;;;;;;9.82;9.15;;;25.00;94.60;;;;;;5091571;28;20217;-75
2021/06/29 05:52:15;;;;;;;9.77;9.07;;;25.10;94.80;;;;;;5091187;28;20692;-75
2021/06/29 05:54:44;;;;;;;10.30;9.45;;;25.10;94.80;;;;;;5091411;28;20207;-75
2021/06/29 05:57:11;;;;;;;10.70;9.90;;;25.10;94.80;;;;;;5091083;28;20239;-75
2021/06/29 05:59:38;;;;;;;10.32;9.43;;;25.20;95.10;;;;;;5091538;28;20207;-75
2021/06/29 06:02:05;;;;;;;11.10;9.82;;;25.20;95.10;;;;;;5091468;28;20211;-75
2021/06/29 06:04:32;;;;;;;10.80;10.05;;;25.30;94.60;;;;;;5091067;28;20462;-75
2021/06/29 06:06:58;;;;;;;11.02;10.05;;;25.30;94.70;;;;;;5091190;28;20256;-75
2021/06/29 06:09:25;;;;;;;11.40;10.48;;;25.30;94.70;;;;;;5091165;28;20206;-75
2021/06/29 06:11:53;;;;;;;10.85;10.05;;;25.30;94.70;;;;;;5091138;28;20257;-75
2021/06/29 06:14:19;;;;;;;11.50;10.63;;;25.40;94.90;;;;;;5091122;28;20207;-75
2021/06/29 06:16:46;;;;;;;11.30;10.13;;;25.40;94.80;;;;;;5090992;28;20226;-75
2021/06/29 06:19:13;;;;;;;11.65;10.60;;;25.40;94.70;;;;;;5090770;28;20661;-75
2021/06/29 06:21:39;;;;;;;12.35;10.88;;;25.50;94.70;;;;;;5090897;28;20206;-75
2021/06/29 06:24:06;;;;;;;21.33;10.32;;;25.50;94.70;;;;;;5090538;28;20202;-75
2021/06/29 06:26:33;;;;;;;11.30;10.10;;;25.50;94.70;;;;;;5090706;28;20203;-75
2021/06/29 06:29:01;;;;;;;11.30;10.27;;;25.60;94.70;;;;;;5090692;28;20223;-75
2021/06/29 06:31:28;;;;;;;10.57;9.88;;;25.60;94.70;;;;;;5091129;28;20550;-75
2021/06/29 06:33:54;;;;;;;10.57;9.68;;;25.60;94.60;;;;;;5090633;28;20260;-75
2021/06/29 06:36:21;;;;;;;12.20;9.38;;;25.60;94.70;;;;;;5090300;28;20734;-75
2021/06/29 06:38:48;;;;;;;11.77;10.70;;;25.60;94.80;;;;;;5090318;28;20239;-75
2021/06/29 06:41:14;;;;;;;11.25;10.45;;;25.60;94.70;;;;;;5090650;28;20206;-75
2021/06/29 06:43:41;;;;;;;17.67;10.95;;;25.50;94.40;;;;;;5090371;28;20234;-75
2021/06/29 06:46:09;;;;;;;11.60;10.70;;;25.50;94.50;;;;;;5090656;28;20203;-75
2021/06/29 06:48:36;;;;;;;11.13;10.00;;;25.50;94.70;;;;;;5090478;28;20211;-75
2021/06/29 06:51:03;;;;;;;11.45;9.90;;;25.50;94.80;;;;;;5090403;28;20202;-75
2021/06/29 06:53:30;;;;;;;11.18;9.90;;;25.60;94.90;;;;;;5090309;28;20258;-75
2021/06/29 06:55:57;;;;;;;10.23;9.52;;;25.60;94.70;;;;;;5090405;28;20203;-75
2021/06/29 06:58:25;;;;;;;11.02;10.23;;;25.60;94.70;;;;;;5089729;28;20278;-75
2021/06/29 07:00:52;;;;;;;10.38;9.68;;;25.70;94.70;;;;;;5090137;28;20294;-75
2021/06/29 07:03:19;;;;;;;9.77;9.07;;;25.70;94.50;;;;;;5090265;28;20230;-75
2021/06/29 07:05:46;;;;;;;10.32;9.43;;;25.70;94.70;;;;;;5090024;28;20199;-75
2021/06/29 07:08:13;;;;;;;10.60;9.68;;;25.80;94.90;;;;;;5089990;28;20248;-76
2021/06/29 07:10:39;;;;;;;11.05;10.10;;;25.90;95.00;;;;;;5089719;28;20618;-75
2021/06/29 07:13:06;;;;;;;9.88;9.18;;;25.90;94.90;;;;;;5089897;28;20207;-75
2021/06/29 07:15:33;;;;;;;10.70;9.80;;;26.00;94.90;;;;;;5089850;28;20290;-75
2021/06/29 07:18:00;;;;;;;10.90;9.77;;;26.10;94.80;;;;;;5089938;28;20249;-75
2021/06/29 07:20:28;;;;;;;10.57;9.77;;;26.10;94.70;;;;;;5089767;28;20202;-75
2021/06/29 07:22:54;;;;;;;9.68;8.98;;;26.10;94.60;;;;;;5089748;28;20234;-75
2021/06/29 07:25:21;;;;;;;10.38;9.48;;;26.20;94.80;;;;;;5089819;28;20213;-75
2021/06/29 07:27:48;;;;;;;9.98;9.27;;;26.20;94.50;;;;;;5089350;28;20226;-75
2021/06/29 07:30:16;;;;;;;10.27;9.43;;;26.30;94.40;;;;;;5089713;28;20203;-75
2021/06/29 07:32:43;;;;;;;23.83;10.27;;;26.30;94.30;;;;;;5089180;28;20214;-75
2021/06/29 07:35:11;;;;;;;13.55;10.25;;;26.30;94.30;;;;;;5089362;28;20294;-75
2021/06/29 07:37:39;;;;;;;9.98;9.25;;;26.40;94.60;;;;;;5088268;28;20315;-75
2021/06/29 07:40:07;;;;;;;11.80;10.32;;;26.40;94.90;;;;;;5089453;28;20214;-75
2021/06/29 07:42:34;;;;;;;10.82;9.98;;;26.50;94.70;;;;;;5089363;28;20203;-75
2021/06/29 07:45:01;;;;;;;18.98;10.75;;;26.60;94.40;;;;;;5089159;28;20207;-75
2021/06/29 07:47:27;;;;;;;12.35;9.80;;;26.70;94.30;;;;;;5089326;28;20234;-75
2021/06/29 07:49:54;;;;;;;11.77;9.95;;;26.70;94.30;;;;;;5089071;28;20638;-75
2021/06/29 07:52:21;;;;;;;11.05;9.90;;;26.80;94.30;;;;;;5089147;28;20227;-74
2021/06/29 07:54:49;;;;;;;10.52;9.73;;;26.90;94.20;;;;;;5089457;28;20206;-75
2021/06/29 07:57:15;;;;;;;10.38;9.45;;;27.00;94.00;;;;;;5088574;28;20265;-75
2021/06/29 07:59:42;;;;;;;10.80;10.00;;;27.00;93.70;;;;;;5088982;28;20217;-75
2021/06/29 08:02:09;;;;;;;12.27;10.45;;;27.10;93.60;;;;;;5089066;28;20234;-75
2021/06/29 08:04:36;;;;;;;12.68;11.05;;;27.20;93.60;;;;;;5088824;28;20207;-75
2021/06/29 08:07:03;;;;;;;10.70;9.73;;;27.20;93.90;;;;;;5088896;28;20289;-75
2021/06/29 08:09:30;;;;;;;11.00;10.20;;;27.20;93.70;;;;;;5088666;28;20794;-75
2021/06/29 08:11:58;;;;;;;10.80;9.70;;;27.30;93.70;;;;;;5088609;28;20263;-75
2021/06/29 08:14:25;;;;;;;11.48;9.80;;;27.30;93.60;;;;;;5088519;28;20665;-75
2021/06/29 08:16:54;;;;;;;12.48;11.10;;;27.40;93.50;;;;;;5088802;28;20256;-75
2021/06/29 08:19:20;;;;;;;13.20;11.30;;;27.40;93.30;;;;;;5088374;28;20762;-75
2021/06/29 08:21:47;;;;;;;12.30;10.40;;;27.40;93.70;;;;;;5088735;28;20202;-75
2021/06/29 08:24:14;;;;;;;10.60;9.50;;;27.40;93.50;;;;;;5088744;28;20238;-75
2021/06/29 08:26:40;;;;;;;10.73;9.68;;;27.50;93.50;;;;;;5088569;28;20252;-75
2021/06/29 08:29:08;;;;;;;10.77;9.68;;;27.50;93.50;;;;;;5088394;28;20252;-75
2021/06/29 08:31:37;;;;;;;10.50;9.23;;;27.60;93.50;;;;;;5088154;28;20653;-75
2021/06/29 08:34:04;;;;;;;10.23;9.35;;;27.60;93.60;;;;;;5088415;28;20227;-75
2021/06/29 08:36:30;;;;;;;11.57;9.80;;;27.70;93.60;;;;;;5088185;28;20264;-75
2021/06/29 08:38:57;;;;;;;10.75;9.75;;;27.70;93.30;;;;;;5088109;28;20230;-75
2021/06/29 08:41:24;;;;;;;10.40;9.40;;;27.70;93.60;;;;;;5088458;28;20252;-75
2021/06/29 08:43:52;;;;;;;9.32;8.55;;;27.80;93.70;;;;;;5088080;28;20279;-75
2021/06/29 08:46:20;;;;;;;10.23;9.30;;;27.90;93.50;;;;;;5088289;28;20505;-75
2021/06/29 08:48:46;;;;;;;10.02;8.88;;;28.00;93.10;;;;;;5088125;28;20234;-75
2021/06/29 08:51:15;;;;;;;11.60;9.38;;;28.00;92.90;;;;;;5088265;28;20207;-75
2021/06/29 08:53:41;;;;;;;9.90;8.95;;;28.10;92.80;;;;;;5088391;28;20279;-75
2021/06/29 08:56:14;;;;;;;9.68;8.80;;;28.20;92.50;;;;;;5088454;28;20260;-75
2021/06/29 08:58:41;;;;;;;18.88;9.18;;;28.30;92.50;;;;;;5088009;28;20222;-75
2021/06/29 09:01:08;;;;;;;14.35;8.38;;;28.30;92.70;;;;;;5087852;28;20625;-75
2021/06/29 09:03:36;;;;;;;9.35;8.40;;;28.40;92.70;;;;;;5087848;28;20207;-75
2021/06/29 09:06:03;;;;;;;8.18;7.53;;;28.50;92.70;;;;;;5087704;28;20238;-75
2021/06/29 09:08:38;;;;;;;8.40;7.68;;;28.50;92.00;;;;;;5088024;28;20207;-75
2021/06/29 09:11:09;;;;;;;8.27;7.50;;;28.60;91.50;;;;;;5088325;28;20228;-75
2021/06/29 09:13:36;;;;;;;8.77;8.07;;;28.60;91.70;;;;;;5088094;28;20195;-75
2021/06/29 09:16:03;;;;;;;8.27;7.78;;;28.60;91.30;;;;;;5088098;28;20572;-75
2021/06/29 09:18:31;;;;;;;9.13;8.43;;;28.60;90.70;;;;;;5087998;28;20260;-75
2021/06/29 09:21:03;;;;;;;8.30;7.70;;;28.60;91.10;;;;;;5087800;28;20252;-75
2021/06/29 09:23:31;;;;;;;13.05;8.35;;;28.70;91.10;;;;;;5087652;28;20621;-75
2021/06/29 09:26:00;;;;;;;12.85;6.85;;;28.70;91.10;;;;;;5087894;28;20256;-75
2021/06/29 09:28:28;;;;;;;9.10;7.03;;;28.70;89.60;;;;;;5087878;28;20235;-75
2021/06/29 09:30:57;;;;;;;7.90;7.13;;;28.70;90.10;;;;;;5087799;28;20203;-75
2021/06/29 09:33:25;;;;;;;6.88;6.35;;;28.70;90.10;;;;;;5087927;28;20569;-75
2021/06/29 09:35:54;;;;;;;6.75;6.35;;;28.70;90.00;;;;;;5087673;28;20199;-75
2021/06/29 09:38:26;;;;;;;6.82;6.32;;;28.70;90.00;;;;;;5087906;28;20276;-75
2021/06/29 09:40:55;;;;;;;8.02;7.45;;;28.60;89.90;;;;;;5087631;28;20191;-75
2021/06/29 09:43:23;;;;;;;7.80;7.20;;;28.60;90.20;;;;;;5087340;28;20661;-75
2021/06/29 09:45:52;;;;;;;8.13;7.38;;;28.60;90.30;;;;;;5087442;28;20207;-75
2021/06/29 09:48:28;;;;;;;7.63;7.03;;;28.60;90.30;;;;;;5087735;28;20218;-75
2021/06/29 09:50:55;;;;;;;7.63;6.93;;;28.60;90.70;;;;;;5087031;28;20906;-75
2021/06/29 09:53:27;;;;;;;8.30;7.43;;;28.50;90.70;;;;;;5087020;28;20656;-75
2021/06/29 09:55:56;;;;;;;16.27;8.38;;;28.50;90.60;;;;;;5087258;28;20589;-75
2021/06/29 09:58:23;;;;;;;7.95;7.30;;;28.40;90.10;;;;;;5087123;28;20712;-75
2021/06/29 10:00:53;;;;;;;7.47;6.88;;;28.40;90.00;;;;;;5090411;28;20260;-75
2021/06/29 10:03:32;;;;;;;7.05;6.55;;;28.40;90.10;;;;;;5091326;28;20288;-75
2021/06/29 10:06:02;;;;;;;7.47;6.88;;;28.30;89.30;;;;;;5091136;28;20637;-75
2021/06/29 10:08:33;;;;;;;6.95;6.55;;;28.30;90.00;;;;;;5091281;28;20210;-75
2021/06/29 10:11:04;;;;;;;7.65;6.85;;;28.30;90.40;;;;;;5091178;28;20187;-75
2021/06/29 10:13:35;;;;;;;7.18;6.57;;;28.40;90.20;;;;;;5091055;28;20248;-75
2021/06/29 10:16:02;;;;;;;8.20;7.63;;;28.40;90.50;;;;;;5090739;28;20633;-75
2021/06/29 10:18:31;;;;;;;8.82;8.05;;;28.50;90.80;;;;;;5091054;28;20237;-75
2021/06/29 10:21:00;;;;;;;9.13;8.10;;;28.60;91.00;;;;;;5090761;28;20561;-75
2021/06/29 10:23:27;;;;;;;8.45;7.88;;;28.70;91.70;;;;;;5090956;28;20206;-75
2021/06/29 10:25:56;;;;;;;7.30;6.80;;;28.80;91.70;;;;;;5091016;28;20207;-75
2021/06/29 10:28:24;;;;;;;6.50;5.90;;;28.80;91.30;;;;;;5090773;28;20241;-75
2021/06/29 10:30:51;;;;;;;5.20;4.93;;;28.90;90.40;;;;;;5090734;28;20252;-75
2021/06/29 10:33:19;;;;;;;5.25;4.15;;;28.90;88.80;;;;;;5090802;28;20263;-75
2021/06/29 10:35:45;;;;;;;6.43;5.57;;;28.90;83.50;;;;;;5090772;28;20207;-75
2021/06/29 10:38:12;;;;;;;4.97;4.68;;;28.80;82.80;;;;;;5090352;28;20231;-75
2021/06/29 10:40:39;;;;;;;4.72;4.30;;;28.70;81.40;;;;;;5090736;28;20214;-75
2021/06/29 10:43:07;;;;;;;5.80;5.40;;;28.70;82.70;;;;;;5089559;28;20676;-75
2021/06/29 10:45:35;;;;;;;4.93;4.70;;;28.60;82.90;;;;;;5090623;28;20261;-76
2021/06/29 10:48:19;;;;;;;5.57;5.18;;;28.60;84.10;;;;;;5090229;28;20202;-75
2021/06/29 10:50:47;;;;;;;6.20;5.70;;;28.60;85.50;;;;;;5090170;28;20249;-75
2021/06/29 10:53:32;;;;;;;5.78;5.28;;;28.60;85.70;;;;;;5090069;28;20776;-75
2021/06/29 10:55:59;;;;;;;4.90;4.63;;;28.50;84.80;;;;;;5090235;28;20602;-75
2021/06/29 10:58:41;;;;;;;5.75;5.35;;;28.50;82.50;;;;;;5089771;28;20235;-75
2021/06/29 11:01:28;;;;;;;5.80;5.18;;;28.40;83.10;;;;;;5090012;28;20882;-75
2021/06/29 11:03:56;;;;;;;7.40;5.93;;;28.40;84.50;;;;;;5089998;28;20577;-75
2021/06/29 11:06:32;;;;;;;7.97;7.38;;;28.40;86.40;;;;;;5089648;28;20665;-75
2021/06/29 11:09:00;;;;;;;8.88;8.05;;;28.40;90.40;;;;;;5090014;28;20194;-75
2021/06/29 11:11:27;;;;;;;9.82;8.90;;;28.20;92.20;;;;;;5089010;28;20199;-75
2021/06/29 11:13:56;;;;;;;9.00;8.40;;;28.20;93.00;;;;;;5089760;28;20206;-75
2021/06/29 11:16:50;;;;;;;9.30;8.60;;;28.00;93.10;;;;;;5089911;28;20207;-75
2021/06/29 11:19:17;;;;;;;9.60;8.63;;;28.00;93.10;;;;;;5089951;28;20268;-75
2021/06/29 11:21:44;;;;;;;9.30;8.60;;;28.00;93.30;;;;;;5089802;28;20202;-75
2021/06/29 11:24:38;;;;;;;9.80;9.00;;;28.00;93.50;;;;;;5089358;28;20669;-75
2021/06/29 11:27:06;;;;;;;15.80;9.00;;;28.10;93.10;;;;;;5089380;28;20314;-75
2021/06/29 11:29:42;;;;;;;9.57;8.75;;;28.10;93.30;;;;;;5089601;28;20211;-75
2021/06/29 11:32:28;;;;;;;9.88;9.07;;;28.10;93.20;;;;;;5089494;28;20217;-75
2021/06/29 11:34:55;;;;;;;9.55;8.65;;;28.10;93.30;;;;;;5089462;28;20202;-75
2021/06/29 11:37:22;;;;;;;9.95;9.07;;;28.10;93.30;;;;;;5089579;28;20242;-75
2021/06/29 11:39:58;;;;;;;9.82;8.80;;;28.10;93.40;;;;;;5089337;28;20598;-75
2021/06/29 11:42:30;;;;;;;8.95;8.23;;;28.20;93.20;;;;;;5089411;28;20206;-75
2021/06/29 11:45:08;;;;;;;9.60;8.73;;;28.40;93.50;;;;;;5089399;28;20197;-75
2021/06/29 11:47:38;;;;;;;10.02;9.25;;;28.40;93.10;;;;;;5089544;28;20625;-75
2021/06/29 11:50:16;;;;;;;9.80;9.00;;;28.40;93.10;;;;;;5089452;28;20255;-75
2021/06/29 11:52:43;;;;;;;9.25;8.65;;;28.50;93.10;;;;;;5089593;28;20279;-75
2021/06/29 11:55:16;;;;;;;9.25;8.43;;;28.70;93.00;;;;;;5089145;28;20213;-75
2021/06/29 11:57:46;;;;;;;8.88;8.27;;;28.80;92.80;;;;;;5088782;28;20239;-75
2021/06/29 12:00:29;;;;;;;10.07;9.10;;;28.80;92.80;;;;;;5089230;28;20295;-75
2021/06/29 12:02:58;;;;;;;10.23;9.15;;;28.90;92.60;;;;;;5088929;28;20578;-75
2021/06/29 12:05:26;;;;;;;9.85;8.95;;;29.00;92.80;;;;;;5089126;28;20206;-76
2021/06/29 12:07:54;;;;;;;10.48;8.68;;;28.90;92.70;;;;;;5088799;28;20211;-75
2021/06/29 12:10:23;;;;;;;10.10;9.30;;;28.80;92.80;;;;;;5088853;28;20213;-76
2021/06/29 12:12:51;;;;;;;10.13;9.30;;;28.80;92.40;;;;;;5088722;28;20251;-75
2021/06/29 12:15:21;;;;;;;9.35;8.65;;;28.90;92.50;;;;;;5088922;28;20298;-76
2021/06/29 12:17:52;;;;;;;9.73;9.00;;;28.80;92.70;;;;;;5088807;28;20197;-75
2021/06/29 12:20:21;;;;;;;10.18;9.20;;;28.50;93.20;;;;;;5088796;28;20319;-75
2021/06/29 12:22:49;;;;;;;9.77;8.65;;;28.30;93.10;;;;;;5088238;28;20672;-76
2021/06/29 12:25:25;;;;;;;9.70;8.80;;;28.40;93.60;;;;;;5088492;28;20661;-75
2021/06/29 12:27:53;;;;;;;9.20;8.40;;;28.30;93.40;;;;;;5088305;28;20588;-75
2021/06/29 12:30:30;;;;;;;8.82;8.07;;;28.30;93.50;;;;;;5088563;28;20206;-75
2021/06/29 12:33:00;;;;;;;9.00;8.30;;;28.30;93.90;;;;;;5088543;28;20283;-75
2021/06/29 12:35:31;;;;;;;10.45;8.48;;;28.30;94.30;;;;;;5088367;28;20665;-75
2021/06/29 12:38:01;;;;;;;9.55;8.63;;;28.20;94.10;;;;;;5088417;28;20195;-75
2021/06/29 12:40:31;;;;;;;9.57;8.48;;;28.20;94.00;;;;;;5088624;28;20219;-75
2021/06/29 12:42:59;;;;;;;8.52;7.75;;;28.10;94.00;;;;;;5088502;28;20567;-75
2021/06/29 12:45:29;;;;;;;8.73;7.70;;;28.20;94.00;;;;;;5088458;28;20203;-75
2021/06/29 12:48:09;;;;;;;8.48;6.80;;;28.20;94.40;;;;;;5088207;28;20191;-75